Time;durP1;ratioP1;P1;durP2;ratioP2;P2;SDS_P1;SDS_P2;PMS_P1;PMS_P2;Temp;Humidity;BMP_temperature;BMP_pressure;BME280_temperature;BME280_humidity;BME280_pressure;Samples;Min_cycle;Max_cycle;Signal;HPM_P1;HPM_P2
2021/03/04 00:00:18;;;;;;;39.20;13.02;;;;;;;;;;5053124;28;20485;-58
2021/03/04 00:02:44;;;;;;;31.65;13.18;;;;;;;;;;5058833;28;20471;-58
2021/03/04 00:05:11;;;;;;;38.58;13.50;;;;;;;;;;5072935;28;20020;-58
2021/03/04 00:07:38;;;;;;;32.95;14.55;;;;;;;;;;5070902;28;20040;-58
2021/03/04 00:10:06;;;;;;;31.45;13.90;;;;;;;;;;5072825;28;20366;-59
2021/03/04 00:12:32;;;;;;;30.50;13.73;;;;;;;;;;5070727;28;20029;-58
2021/03/04 00:14:58;;;;;;;38.50;14.55;;;;;;;;;;5053989;28;20086;-58
2021/03/04 00:17:24;;;;;;;32.88;14.55;;;;;;;;;;5053626;28;20033;-58
2021/03/04 00:19:50;;;;;;;37.97;13.75;;;;;;;;;;5051380;28;20025;-59
2021/03/04 00:22:16;;;;;;;33.85;14.57;;;;;;;;;;5068715;28;20029;-58
2021/03/04 00:24:41;;;;;;;36.55;15.15;;;;;;;;;;5072819;28;20471;-58
2021/03/04 00:27:08;;;;;;;34.63;12.50;;;;;;;;;;5071997;28;20190;-59
2021/03/04 00:29:34;;;;;;;33.33;13.85;;;;;;;;;;5075867;28;20033;-58
2021/03/04 00:32:00;;;;;;;35.83;15.05;;;;;;;;;;5058361;28;20079;-58
2021/03/04 00:34:26;;;;;;;36.05;13.43;;;;;;;;;;5056786;28;20053;-59
2021/03/04 00:36:52;;;;;;;30.15;11.77;;;;;;;;;;5056685;28;20040;-58
2021/03/04 00:39:18;;;;;;;30.65;14.07;;;;;;;;;;5057347;28;20390;-58
2021/03/04 00:41:44;;;;;;;32.50;13.75;;;;;;;;;;5054947;28;20029;-58
2021/03/04 00:44:09;;;;;;;33.78;14.32;;;;;;;;;;5073317;28;20024;-58
2021/03/04 00:46:35;;;;;;;36.03;13.32;;;;;;;;;;5074826;28;20446;-58
2021/03/04 00:49:02;;;;;;;32.97;13.07;;;;;;;;;;5074024;28;20036;-58
2021/03/04 00:51:29;;;;;;;34.70;14.48;;;;;;;;;;5076350;28;20453;-58
2021/03/04 00:53:55;;;;;;;34.80;15.20;;;;;;;;;;5075920;28;20093;-58
2021/03/04 00:56:21;;;;;;;35.38;15.50;;;;;;;;;;5076204;28;20029;-58
2021/03/04 00:58:47;;;;;;;34.75;14.55;;;;;;;;;;5065688;28;20036;-58
2021/03/04 01:01:14;;;;;;;35.35;14.23;;;;;;;;;;5057353;28;20029;-59
2021/03/04 01:03:40;;;;;;;39.30;14.30;;;;;;;;;;5055967;28;20079;-58
2021/03/04 01:06:06;;;;;;;33.22;14.35;;;;;;;;;;5056064;28;20021;-58
2021/03/04 01:08:32;;;;;;;31.58;13.00;;;;;;;;;;5055750;28;20273;-58
2021/03/04 01:10:58;;;;;;;26.05;12.75;;;;;;;;;;5056728;28;20033;-59
2021/03/04 01:13:25;;;;;;;36.22;14.82;;;;;;;;;;5056261;28;20029;-58
2021/03/04 01:15:51;;;;;;;34.47;13.75;;;;;;;;;;5055954;28;20028;-58
2021/03/04 01:18:17;;;;;;;26.98;13.73;;;;;;;;;;5068939;28;20429;-58
2021/03/04 01:20:43;;;;;;;32.08;14.68;;;;;;;;;;5068741;28;20036;-59
2021/03/04 01:23:09;;;;;;;30.98;14.13;;;;;;;;;;5055612;28;20096;-59
2021/03/04 01:25:35;;;;;;;32.63;13.40;;;;;;;;;;5055351;28;20117;-58
2021/03/04 01:28:01;;;;;;;44.33;14.45;;;;;;;;;;5075043;28;20020;-58
2021/03/04 01:30:29;;;;;;;33.45;13.55;;;;;;;;;;5075436;28;20389;-59
2021/03/04 01:32:55;;;;;;;31.30;13.60;;;;;;;;;;5073652;28;20024;-58
2021/03/04 01:35:21;;;;;;;43.75;14.82;;;;;;;;;;5075515;28;20062;-58
2021/03/04 01:37:47;;;;;;;36.58;13.65;;;;;;;;;;5075207;28;20450;-58
2021/03/04 01:40:15;;;;;;;33.40;14.13;;;;;;;;;;5073128;28;20032;-58
2021/03/04 01:42:41;;;;;;;30.33;14.32;;;;;;;;;;5073660;28;20055;-58
2021/03/04 01:45:08;;;;;;;33.78;13.88;;;;;;;;;;5074932;28;20027;-59
2021/03/04 01:47:35;;;;;;;29.98;13.93;;;;;;;;;;5075018;28;20028;-58
2021/03/04 01:50:02;;;;;;;34.72;14.23;;;;;;;;;;5073866;28;20086;-58
2021/03/04 01:52:28;;;;;;;35.72;15.45;;;;;;;;;;5073093;28;20025;-58
2021/03/04 01:54:54;;;;;;;37.97;14.15;;;;;;;;;;5075347;28;20031;-58
2021/03/04 01:57:20;;;;;;;34.35;12.70;;;;;;;;;;5073195;28;20020;-58
2021/03/04 01:59:46;;;;;;;37.40;14.30;;;;;;;;;;5073775;28;20024;-58
2021/03/04 02:02:12;;;;;;;31.05;13.50;;;;;;;;;;5066245;28;20066;-58
2021/03/04 02:04:38;;;;;;;35.78;14.10;;;;;;;;;;5054971;28;20033;-58
2021/03/04 02:07:05;;;;;;;24.70;12.23;;;;;;;;;;5054409;28;20054;-58
2021/03/04 02:09:31;;;;;;;32.03;13.38;;;;;;;;;;5053363;28;20037;-58
2021/03/04 02:12:02;;;;;;;24.25;11.65;;;;;;;;;;5055148;28;20017;-58
2021/03/04 02:14:31;;;;;;;31.58;14.18;;;;;;;;;;5071355;28;20040;-58
2021/03/04 02:16:59;;;;;;;34.67;13.85;;;;;;;;;;5074666;28;20090;-58
2021/03/04 02:19:29;;;;;;;32.95;13.55;;;;;;;;;;5058372;28;20031;-59
2021/03/04 02:22:07;;;;;;;34.10;15.20;;;;;;;;;;5067840;28;20108;-58
2021/03/04 02:24:51;;;;;;;29.67;12.80;;;;;;;;;;5055621;28;20048;-58
2021/03/04 02:27:19;;;;;;;29.08;13.00;;;;;;;;;;5054328;28;20031;-58
2021/03/04 02:29:51;;;;;;;35.58;13.90;;;;;;;;;;5054371;28;20041;-58
2021/03/04 02:32:21;;;;;;;33.50;13.60;;;;;;;;;;5054397;28;20036;-58
2021/03/04 02:34:57;;;;;;;22.13;12.32;;;;;;;;;;5055547;28;20024;-58
2021/03/04 02:37:24;;;;;;;34.97;12.75;;;;;;;;;;5054159;28;20033;-58
2021/03/04 02:39:52;;;;;;;24.55;12.25;;;;;;;;;;5054242;28;20107;-58
2021/03/04 02:42:20;;;;;;;36.20;12.77;;;;;;;;;;5054068;28;20044;-58
2021/03/04 02:44:47;;;;;;;31.52;11.77;;;;;;;;;;5054943;28;20076;-58
2021/03/04 02:47:15;;;;;;;35.45;13.32;;;;;;;;;;5053817;28;20430;-58
2021/03/04 02:49:41;;;;;;;26.25;11.98;;;;;;;;;;5060294;28;20365;-58
2021/03/04 02:52:07;;;;;;;36.97;14.55;;;;;;;;;;5072290;28;20025;-58
2021/03/04 02:54:33;;;;;;;36.08;13.10;;;;;;;;;;5073735;28;20470;-58
2021/03/04 02:57:02;;;;;;;37.40;17.38;;;;;;;;;;5072270;28;20027;-58
2021/03/04 02:59:28;;;;;;;27.92;13.30;;;;;;;;;;5074127;28;20063;-58
2021/03/04 03:01:54;;;;;;;32.00;14.43;;;;;;;;;;5073426;28;20090;-58
2021/03/04 03:04:20;;;;;;;24.60;9.75;;;;;;;;;;5074303;28;20063;-58
2021/03/04 03:06:47;;;;;;;34.67;11.38;;;;;;;;;;5071525;28;20079;-58
2021/03/04 03:09:13;;;;;;;37.38;13.52;;;;;;;;;;5073105;28;20064;-58
2021/03/04 03:11:39;;;;;;;27.73;11.70;;;;;;;;;;5072943;28;20365;-58
2021/03/04 03:14:05;;;;;;;29.15;13.77;;;;;;;;;;5073729;28;20032;-58
2021/03/04 03:16:31;;;;;;;26.75;13.48;;;;;;;;;;5071984;28;20489;-58
2021/03/04 03:18:57;;;;;;;29.63;13.77;;;;;;;;;;5054547;28;20021;-58
2021/03/04 03:21:23;;;;;;;34.05;13.98;;;;;;;;;;5052240;28;20021;-58
2021/03/04 03:23:49;;;;;;;30.10;12.93;;;;;;;;;;5053499;28;20351;-58
2021/03/04 03:26:15;;;;;;;31.17;11.75;;;;;;;;;;5053195;28;20029;-58
2021/03/04 03:28:42;;;;;;;30.00;13.82;;;;;;;;;;5052902;28;20519;-58
2021/03/04 03:31:08;;;;;;;35.28;13.63;;;;;;;;;;5052020;28;20025;-58
2021/03/04 03:33:35;;;;;;;28.35;12.88;;;;;;;;;;5053717;28;20025;-58
2021/03/04 03:36:01;;;;;;;26.80;10.15;;;;;;;;;;5053567;28;20021;-58
2021/03/04 03:38:27;;;;;;;31.48;13.73;;;;;;;;;;5054588;28;20055;-58
2021/03/04 03:40:56;;;;;;;30.85;13.15;;;;;;;;;;5051642;28;20029;-58
2021/03/04 03:43:22;;;;;;;24.33;10.30;;;;;;;;;;5049622;28;20462;-58
2021/03/04 03:45:50;;;;;;;29.05;13.07;;;;;;;;;;5063463;28;20497;-58
2021/03/04 03:48:17;;;;;;;34.00;12.52;;;;;;;;;;5070630;28;20029;-58
2021/03/04 03:50:44;;;;;;;34.45;11.82;;;;;;;;;;5073255;28;20063;-58
2021/03/04 03:53:14;;;;;;;31.45;12.50;;;;;;;;;;5071625;28;20016;-58
2021/03/04 03:55:41;;;;;;;25.10;12.23;;;;;;;;;;5072775;28;20070;-58
2021/03/04 03:58:07;;;;;;;27.80;12.10;;;;;;;;;;5063973;28;20272;-58
2021/03/04 04:00:33;;;;;;;32.78;14.07;;;;;;;;;;5053782;28;20029;-58
2021/03/04 04:03:00;;;;;;;29.83;12.40;;;;;;;;;;5061088;28;20029;-58
2021/03/04 04:05:26;;;;;;;30.77;13.13;;;;;;;;;;5072899;28;20154;-58
2021/03/04 04:07:56;;;;;;;33.85;12.93;;;;;;;;;;5065779;28;20070;-58
2021/03/04 04:10:23;;;;;;;43.57;13.97;;;;;;;;;;5053818;28;20045;-58
2021/03/04 04:12:49;;;;;;;30.23;11.50;;;;;;;;;;5056371;28;20785;-58
2021/03/04 04:15:16;;;;;;;30.80;12.07;;;;;;;;;;5070425;28;20029;-58
2021/03/04 04:17:42;;;;;;;35.53;12.93;;;;;;;;;;5065916;28;20166;-58
2021/03/04 04:20:08;;;;;;;31.40;13.88;;;;;;;;;;5053821;28;20024;-58
2021/03/04 04:22:35;;;;;;;26.75;10.13;;;;;;;;;;5051570;28;20025;-58
2021/03/04 04:25:01;;;;;;;27.55;12.50;;;;;;;;;;5051667;28;20115;-58
2021/03/04 04:27:27;;;;;;;27.35;12.20;;;;;;;;;;5052641;28;20363;-58
2021/03/04 04:29:53;;;;;;;32.33;13.15;;;;;;;;;;5052416;28;20040;-58
2021/03/04 04:32:20;;;;;;;26.67;10.88;;;;;;;;;;5052697;28;20346;-58
2021/03/04 04:34:46;;;;;;;27.50;12.35;;;;;;;;;;5052600;28;20025;-58
2021/03/04 04:37:12;;;;;;;33.92;13.55;;;;;;;;;;5052926;28;20230;-58
2021/03/04 04:39:38;;;;;;;28.70;10.80;;;;;;;;;;5052513;28;20092;-58
2021/03/04 04:42:04;;;;;;;32.53;13.18;;;;;;;;;;5053655;28;20454;-58
2021/03/04 04:44:30;;;;;;;28.63;13.80;;;;;;;;;;5052493;28;20025;-58
2021/03/04 04:46:56;;;;;;;26.63;12.82;;;;;;;;;;5052586;28;20112;-58
2021/03/04 04:49:22;;;;;;;35.70;13.77;;;;;;;;;;5051066;28;20119;-58
2021/03/04 04:51:48;;;;;;;34.33;12.98;;;;;;;;;;5053334;28;20432;-58
2021/03/04 04:54:14;;;;;;;34.30;14.00;;;;;;;;;;5052570;28;20033;-58
2021/03/04 04:56:40;;;;;;;29.08;11.82;;;;;;;;;;5052689;28;20017;-58
2021/03/04 04:59:06;;;;;;;25.08;12.18;;;;;;;;;;5052025;28;20052;-58
2021/03/04 05:01:32;;;;;;;29.63;12.23;;;;;;;;;;5052597;28;20033;-58
2021/03/04 05:03:58;;;;;;;24.48;11.50;;;;;;;;;;5053456;28;20209;-58
2021/03/04 05:06:24;;;;;;;35.25;12.55;;;;;;;;;;5050907;28;20033;-58
2021/03/04 05:08:50;;;;;;;30.60;13.57;;;;;;;;;;5058811;28;20353;-58
2021/03/04 05:11:17;;;;;;;28.55;11.38;;;;;;;;;;5071012;28;20109;-58
2021/03/04 05:13:44;;;;;;;33.85;13.20;;;;;;;;;;5070639;28;20133;-59
2021/03/04 05:16:10;;;;;;;32.28;12.52;;;;;;;;;;5075652;28;20016;-58
2021/03/04 05:18:36;;;;;;;34.40;12.93;;;;;;;;;;5075063;28;20024;-58
2021/03/04 05:21:02;;;;;;;38.45;13.77;;;;;;;;;;5075447;28;20106;-58
2021/03/04 05:23:28;;;;;;;30.23;13.35;;;;;;;;;;5073366;28;20442;-58
2021/03/04 05:25:54;;;;;;;28.90;12.00;;;;;;;;;;5075633;28;20074;-58
2021/03/04 05:28:20;;;;;;;30.88;11.85;;;;;;;;;;5073701;28;20423;-58
2021/03/04 05:30:46;;;;;;;31.27;11.52;;;;;;;;;;5075365;28;20025;-58
2021/03/04 05:33:12;;;;;;;27.35;11.68;;;;;;;;;;5065936;28;20443;-58
2021/03/04 05:35:38;;;;;;;34.65;13.25;;;;;;;;;;5056361;28;20044;-58
2021/03/04 05:38:04;;;;;;;32.67;12.27;;;;;;;;;;5073862;28;20122;-58
2021/03/04 05:40:30;;;;;;;26.83;12.38;;;;;;;;;;5075279;28;20115;-58
2021/03/04 05:42:57;;;;;;;28.40;12.07;;;;;;;;;;5075334;28;20043;-58
2021/03/04 05:45:23;;;;;;;26.20;12.55;;;;;;;;;;5058764;28;20024;-58
2021/03/04 05:47:49;;;;;;;25.75;12.00;;;;;;;;;;5055179;28;20040;-58
2021/03/04 05:50:17;;;;;;;26.90;11.68;;;;;;;;;;5054897;28;20076;-55
2021/03/04 05:52:47;;;;;;;29.88;11.52;;;;;;;;;;5060462;28;20439;-56
2021/03/04 05:55:14;;;;;;;33.77;12.90;;;;;;;;;;5073406;28;20021;-56
2021/03/04 05:57:40;;;;;;;32.60;13.10;;;;;;;;;;5074766;28;20025;-58
2021/03/04 06:00:07;;;;;;;29.25;13.45;;;;;;;;;;5071624;28;20013;-58
2021/03/04 06:02:33;;;;;;;28.80;11.95;;;;;;;;;;5074546;28;20454;-58
2021/03/04 06:05:00;;;;;;;34.03;13.00;;;;;;;;;;5063200;28;20029;-58
2021/03/04 06:07:26;;;;;;;29.25;12.55;;;;;;;;;;5064678;28;20032;-58
2021/03/04 06:09:52;;;;;;;31.70;12.23;;;;;;;;;;5063757;28;20041;-58
2021/03/04 06:12:18;;;;;;;34.05;14.32;;;;;;;;;;5054019;28;20036;-57
2021/03/04 06:14:44;;;;;;;22.05;11.48;;;;;;;;;;5054794;28;20082;-58
2021/03/04 06:17:14;;;;;;;31.70;13.20;;;;;;;;;;5059280;28;20370;-58
2021/03/04 06:19:41;;;;;;;36.78;14.90;;;;;;;;;;5066250;28;20032;-58
2021/03/04 06:22:07;;;;;;;42.60;16.20;;;;;;;;;;5054648;28;20045;-58
2021/03/04 06:24:33;;;;;;;32.80;12.50;;;;;;;;;;5053501;28;20025;-58
2021/03/04 06:26:59;;;;;;;34.58;12.20;;;;;;;;;;5054956;28;20029;-58
2021/03/04 06:29:26;;;;;;;28.70;12.27;;;;;;;;;;5054495;28;20086;-58
2021/03/04 06:32:01;;;;;;;35.53;12.07;;;;;;;;;;5055572;28;20025;-58
2021/03/04 06:34:27;;;;;;;31.65;12.95;;;;;;;;;;5054590;28;20071;-58
2021/03/04 06:37:00;;;;;;;23.52;10.95;;;;;;;;;;5054123;28;20327;-58
2021/03/04 06:39:27;;;;;;;35.40;12.10;;;;;;;;;;5054607;28;20070;-58
2021/03/04 06:41:59;;;;;;;26.88;12.20;;;;;;;;;;5059429;28;20028;-58
2021/03/04 06:44:25;;;;;;;28.83;12.90;;;;;;;;;;5063529;28;20032;-58
2021/03/04 06:46:51;;;;;;;42.60;14.63;;;;;;;;;;5053654;28;20021;-58
2021/03/04 06:49:17;;;;;;;35.63;14.57;;;;;;;;;;5071400;28;20064;-58
2021/03/04 06:51:44;;;;;;;38.85;15.18;;;;;;;;;;5073872;28;20097;-58
2021/03/04 06:54:21;;;;;;;35.97;14.93;;;;;;;;;;5074113;28;20031;-58
2021/03/04 06:56:47;;;;;;;35.75;15.15;;;;;;;;;;5073533;28;20460;-59
2021/03/04 06:59:13;;;;;;;32.17;13.73;;;;;;;;;;5070524;28;20035;-58
2021/03/04 07:01:42;;;;;;;33.40;13.75;;;;;;;;;;5053904;28;20102;-58
2021/03/04 07:04:15;;;;;;;36.22;14.60;;;;;;;;;;5053719;28;20403;-58
2021/03/04 07:06:42;;;;;;;31.67;12.98;;;;;;;;;;5053799;28;20013;-58
2021/03/04 07:09:08;;;;;;;29.13;11.85;;;;;;;;;;5053174;28;20032;-58
2021/03/04 07:11:35;;;;;;;34.42;13.27;;;;;;;;;;5053465;28;20478;-58
2021/03/04 07:14:02;;;;;;;34.10;13.75;;;;;;;;;;5053724;28;20471;-58
2021/03/04 07:16:30;;;;;;;30.65;13.07;;;;;;;;;;5053883;28;20069;-58
2021/03/04 07:18:56;;;;;;;35.65;14.32;;;;;;;;;;5054343;28;20028;-58
2021/03/04 07:21:26;;;;;;;50.90;14.68;;;;;;;;;;5060033;28;20307;-58
2021/03/04 07:23:52;;;;;;;37.83;14.32;;;;;;;;;;5058896;28;20025;-58
2021/03/04 07:26:19;;;;;;;30.17;12.80;;;;;;;;;;5063402;28;20024;-59
2021/03/04 07:28:46;;;;;;;29.05;12.65;;;;;;;;;;5058720;28;20116;-58
2021/03/04 07:31:12;;;;;;;33.83;13.15;;;;;;;;;;5064629;28;20024;-58
2021/03/04 07:33:39;;;;;;;30.02;13.23;;;;;;;;;;5064732;28;20056;-58
2021/03/04 07:36:07;;;;;;;26.20;12.40;;;;;;;;;;5072488;28;20024;-58
2021/03/04 07:38:33;;;;;;;38.20;13.88;;;;;;;;;;5070518;28;20036;-58
2021/03/04 07:41:03;;;;;;;28.73;12.70;;;;;;;;;;5073172;28;20063;-58
2021/03/04 07:43:29;;;;;;;;;;;;;;;;;;5072261;28;20028;-58
2021/03/04 07:45:55;;;;;;;29.38;11.88;;;;;;;;;;5073438;28;19911;-58
2021/03/04 07:48:21;;;;;;;28.75;12.43;;;;;;;;;;5070869;28;20043;-58
2021/03/04 07:50:57;;;;;;;27.92;12.05;;;;;;;;;;5073292;28;20069;-58
2021/03/04 07:53:23;;;;;;;39.72;15.70;;;;;;;;;;5062025;28;20029;-58
2021/03/04 07:55:50;;;;;;;34.53;13.82;;;;;;;;;;5053173;28;20391;-58
2021/03/04 07:58:16;;;;;;;25.60;11.00;;;;;;;;;;5058460;28;20039;-58
2021/03/04 08:00:42;;;;;;;27.05;11.88;;;;;;;;;;5051923;28;20033;-58
2021/03/04 08:03:09;;;;;;;32.38;12.05;;;;;;;;;;5052585;28;20032;-58
2021/03/04 08:05:35;;;;;;;26.00;12.43;;;;;;;;;;5064927;28;20143;-58
2021/03/04 08:08:15;;;;;;;31.23;13.60;;;;;;;;;;5070131;28;20025;-58
2021/03/04 08:10:57;;;;;;;33.58;14.10;;;;;;;;;;5058190;28;20040;-58
2021/03/04 08:13:36;;;;;;;29.08;13.27;;;;;;;;;;5065517;28;20491;-58
2021/03/04 08:16:03;;;;;;;39.33;14.15;;;;;;;;;;5065745;28;20112;-58
2021/03/04 08:18:29;;;;;;;32.15;14.00;;;;;;;;;;5051205;28;20033;-58
2021/03/04 08:21:05;;;;;;;35.45;13.50;;;;;;;;;;5052905;28;20163;-58
2021/03/04 08:23:31;;;;;;;31.35;13.32;;;;;;;;;;5052614;28;20036;-58
2021/03/04 08:25:59;;;;;;;30.05;11.50;;;;;;;;;;5052630;28;20044;-58
2021/03/04 08:28:28;;;;;;;34.03;13.02;;;;;;;;;;5062717;28;20024;-58
2021/03/04 08:30:55;;;;;;;24.47;12.10;;;;;;;;;;5072871;28;20024;-58
2021/03/04 08:33:21;;;;;;;37.10;13.65;;;;;;;;;;5069169;28;20489;-58
2021/03/04 08:35:49;;;;;;;33.45;13.32;;;;;;;;;;5061974;28;20028;-58
2021/03/04 08:38:19;;;;;;;36.22;12.82;;;;;;;;;;5059352;28;20031;-59
2021/03/04 08:40:44;;;;;;;31.88;10.60;;;;;;;;;;5062227;28;20048;-58
2021/03/04 08:43:13;;;;;;;33.83;14.07;;;;;;;;;;5062567;28;20418;-58
2021/03/04 08:45:39;;;;;;;29.38;10.60;;;;;;;;;;5061497;28;20025;-59
2021/03/04 08:48:07;;;;;;;28.10;11.82;;;;;;;;;;5061732;28;20036;-58
2021/03/04 08:50:34;;;;;;;32.58;12.48;;;;;;;;;;5064818;28;20041;-58
2021/03/04 08:53:00;;;;;;;33.15;13.82;;;;;;;;;;5065840;28;20021;-59
2021/03/04 08:55:26;;;;;;;25.48;10.57;;;;;;;;;;5065269;28;20052;-58
2021/03/04 08:57:52;;;;;;;29.90;13.05;;;;;;;;;;5063667;28;20020;-58
2021/03/04 09:00:18;;;;;;;25.00;10.65;;;;;;;;;;5065235;28;20461;-58
2021/03/04 09:02:48;;;;;;;34.30;13.02;;;;;;;;;;5065278;28;20031;-58
2021/03/04 09:05:22;;;;;;;38.95;13.30;;;;;;;;;;5064634;28;20024;-58
2021/03/04 09:07:48;;;;;;;38.30;12.90;;;;;;;;;;5063267;28;20027;-59
2021/03/04 09:10:15;;;;;;;21.45;9.50;;;;;;;;;;5066307;28;20032;-59
2021/03/04 09:12:45;;;;;;;37.65;14.95;;;;;;;;;;5063422;28;20042;-58
2021/03/04 09:15:16;;;;;;;27.02;12.15;;;;;;;;;;5064799;28;20024;-58
2021/03/04 09:17:43;;;;;;;34.75;14.27;;;;;;;;;;5062256;28;20095;-59
2021/03/04 09:20:10;;;;;;;44.60;15.65;;;;;;;;;;5062414;28;20351;-58
2021/03/04 09:22:36;;;;;;;32.13;13.93;;;;;;;;;;5065895;28;20376;-59
2021/03/04 09:25:03;;;;;;;40.60;14.57;;;;;;;;;;5062830;28;20106;-58
2021/03/04 09:27:29;;;;;;;35.70;13.60;;;;;;;;;;5061398;28;20025;-58
2021/03/04 09:29:55;;;;;;;25.17;12.32;;;;;;;;;;5063276;28;20040;-58
2021/03/04 09:32:32;;;;;;;33.92;11.88;;;;;;;;;;5071930;28;20032;-58
2021/03/04 09:34:58;;;;;;;32.67;11.90;;;;;;;;;;5054214;28;20057;-59
2021/03/04 09:37:26;;;;;;;18.60;9.02;;;;;;;;;;5060683;28;20021;-59
2021/03/04 09:39:53;;;;;;;20.52;8.32;;;;;;;;;;5064410;28;20465;-58
2021/03/04 09:42:21;;;;;;;18.92;7.72;;;;;;;;;;5063024;28;20415;-59
2021/03/04 09:44:54;;;;;;;27.15;10.45;;;;;;;;;;5067476;28;20454;-58
2021/03/04 09:47:22;;;;;;;21.77;8.55;;;;;;;;;;5074728;28;20078;-59
2021/03/04 09:49:48;;;;;;;17.40;7.00;;;;;;;;;;5073471;28;20124;-58
2021/03/04 09:52:20;;;;;;;25.00;10.60;;;;;;;;;;5075241;28;20020;-58
2021/03/04 09:54:46;;;;;;;11.05;6.35;;;;;;;;;;5073801;28;20032;-58
2021/03/04 09:57:15;;;;;;;3.97;2.03;;;;;;;;;;5074276;28;20032;-58
2021/03/04 09:59:47;;;;;;;22.00;8.07;;;;;;;;;;5059079;28;20035;-58
2021/03/04 10:02:13;;;;;;;25.80;10.80;;;;;;;;;;5072955;28;20187;-59
2021/03/04 10:04:50;;;;;;;2.80;2.55;;;;;;;;;;5060809;28;20454;-58
2021/03/04 10:07:16;;;;;;;10.15;6.13;;;;;;;;;;5054757;28;20029;-58
2021/03/04 10:09:47;;;;;;;25.48;9.95;;;;;;;;;;5068736;28;20090;-58
2021/03/04 10:12:13;;;;;;;17.02;8.10;;;;;;;;;;5061949;28;20500;-59
2021/03/04 10:14:43;;;;;;;25.38;11.40;;;;;;;;;;5073656;28;20036;-59
2021/03/04 10:17:09;;;;;;;27.60;9.88;;;;;;;;;;5069268;28;20082;-58
2021/03/04 10:19:35;;;;;;;33.33;10.18;;;;;;;;;;5064004;28;20021;-58
2021/03/04 10:22:01;;;;;;;1.98;1.45;;;;;;;;;;5062203;28;20033;-59
2021/03/04 10:24:27;;;;;;;12.50;5.60;;;;;;;;;;5073296;28;20032;-58
2021/03/04 10:26:53;;;;;;;18.38;9.25;;;;;;;;;;5073361;28;20450;-59
2021/03/04 10:29:19;;;;;;;9.82;5.20;;;;;;;;;;5074031;28;20079;-59
2021/03/04 10:31:45;;;;;;;33.80;11.45;;;;;;;;;;5071624;28;20059;-59
2021/03/04 10:34:11;;;;;;;2.08;1.95;;;;;;;;;;5074169;28;20105;-59
2021/03/04 10:36:37;;;;;;;1.35;1.33;;;;;;;;;;5073153;28;20451;-59
2021/03/04 10:39:03;;;;;;;25.23;8.98;;;;;;;;;;5071889;28;20024;-58
2021/03/04 10:41:29;;;;;;;11.05;5.80;;;;;;;;;;5055125;28;20033;-59
2021/03/04 10:43:55;;;;;;;16.60;7.47;;;;;;;;;;5052814;28;20443;-58
2021/03/04 10:46:21;;;;;;;8.75;4.00;;;;;;;;;;5052943;28;20037;-58
2021/03/04 10:48:47;;;;;;;24.98;10.05;;;;;;;;;;5053944;28;20134;-59
2021/03/04 10:51:13;;;;;;;22.50;8.70;;;;;;;;;;5054098;28;20033;-58
2021/03/04 10:53:39;;;;;;;13.45;5.75;;;;;;;;;;5057416;28;20106;-58
2021/03/04 10:56:05;;;;;;;8.63;3.80;;;;;;;;;;5074100;28;20462;-59
2021/03/04 10:58:31;;;;;;;22.65;9.30;;;;;;;;;;5072725;28;20025;-58
2021/03/04 11:00:57;;;;;;;7.85;3.88;;;;;;;;;;5073967;28;20034;-58
2021/03/04 11:03:23;;;;;;;8.80;4.07;;;;;;;;;;5072127;28;20020;-59
2021/03/04 11:05:49;;;;;;;2.47;2.00;;;;;;;;;;5073791;28;20040;-58
2021/03/04 11:08:15;;;;;;;3.67;3.28;;;;;;;;;;5060390;28;20044;-58
2021/03/04 11:10:41;;;;;;;30.05;9.73;;;;;;;;;;5053594;28;20045;-58
2021/03/04 11:13:08;;;;;;;23.88;8.65;;;;;;;;;;5053305;28;20020;-58
2021/03/04 11:15:34;;;;;;;16.23;6.25;;;;;;;;;;5052574;28;20033;-58
2021/03/04 11:18:00;;;;;;;6.72;4.15;;;;;;;;;;5054415;28;20115;-58
2021/03/04 11:20:26;;;;;;;17.88;6.45;;;;;;;;;;5053465;28;20359;-59
2021/03/04 11:22:52;;;;;;;13.43;6.57;;;;;;;;;;5064074;28;20035;-59
2021/03/04 11:25:18;;;;;;;31.83;5.28;;;;;;;;;;5071391;28;20070;-58
2021/03/04 11:27:44;;;;;;;23.17;9.25;;;;;;;;;;5072799;28;20025;-58
2021/03/04 11:30:10;;;;;;;20.40;9.27;;;;;;;;;;5070164;28;20443;-58
2021/03/04 11:32:36;;;;;;;25.33;8.98;;;;;;;;;;5069400;28;20017;-59
2021/03/04 11:35:02;;;;;;;17.55;8.30;;;;;;;;;;5054380;28;20037;-58
2021/03/04 11:37:28;;;;;;;11.27;5.47;;;;;;;;;;5062075;28;20078;-59
2021/03/04 11:39:54;;;;;;;28.40;9.20;;;;;;;;;;5064678;28;20033;-59
2021/03/04 11:42:20;;;;;;;14.68;5.60;;;;;;;;;;5057689;28;20079;-58
2021/03/04 11:44:46;;;;;;;10.57;4.85;;;;;;;;;;5060398;28;20033;-58
2021/03/04 11:47:12;;;;;;;14.38;5.68;;;;;;;;;;5060626;28;20025;-59
2021/03/04 11:49:38;;;;;;;20.55;9.68;;;;;;;;;;5056820;28;20055;-58
2021/03/04 11:52:04;;;;;;;8.43;3.85;;;;;;;;;;5068503;28;20434;-59
2021/03/04 11:54:30;;;;;;;4.57;2.42;;;;;;;;;;5069516;28;20461;-58
2021/03/04 11:56:56;;;;;;;5.00;3.20;;;;;;;;;;5069106;28;20063;-59
2021/03/04 11:59:22;;;;;;;3.47;2.63;;;;;;;;;;5072450;28;20100;-59
2021/03/04 12:01:48;;;;;;;19.48;5.43;;;;;;;;;;5073242;28;20151;-58
2021/03/04 12:04:14;;;;;;;22.73;7.78;;;;;;;;;;5056672;28;20474;-58
2021/03/04 12:06:40;;;;;;;19.15;7.68;;;;;;;;;;5054577;28;20119;-59
2021/03/04 12:09:06;;;;;;;16.23;7.38;;;;;;;;;;5052441;28;20086;-59
2021/03/04 12:11:32;;;;;;;11.43;4.90;;;;;;;;;;5052861;28;20029;-59
2021/03/04 12:13:59;;;;;;;23.35;8.98;;;;;;;;;;5067391;28;20025;-58
2021/03/04 12:16:25;;;;;;;20.88;9.35;;;;;;;;;;5071187;28;20051;-59
2021/03/04 12:18:51;;;;;;;22.85;8.50;;;;;;;;;;5069739;28;20442;-59
2021/03/04 12:21:17;;;;;;;16.95;8.23;;;;;;;;;;5072577;28;20362;-58
2021/03/04 12:23:43;;;;;;;20.33;7.55;;;;;;;;;;5059562;28;20052;-59
2021/03/04 12:26:09;;;;;;;16.98;7.20;;;;;;;;;;5057844;28;20052;-59
2021/03/04 12:28:35;;;;;;;27.98;8.20;;;;;;;;;;5056143;28;20033;-59
2021/03/04 12:31:01;;;;;;;19.55;8.85;;;;;;;;;;5061060;28;20024;-59
2021/03/04 12:33:27;;;;;;;12.90;4.78;;;;;;;;;;5059277;28;20029;-59
2021/03/04 12:35:53;;;;;;;22.42;7.28;;;;;;;;;;5058515;28;20025;-59
2021/03/04 12:38:19;;;;;;;23.75;10.10;;;;;;;;;;5066767;28;20457;-59
2021/03/04 12:40:45;;;;;;;20.50;9.02;;;;;;;;;;5062049;28;20449;-58
2021/03/04 12:43:11;;;;;;;9.88;3.58;;;;;;;;;;5066442;28;20036;-59
2021/03/04 12:45:37;;;;;;;21.73;9.52;;;;;;;;;;5061502;28;20082;-59
2021/03/04 12:48:04;;;;;;;20.85;8.13;;;;;;;;;;5066281;28;20442;-59
2021/03/04 12:50:30;;;;;;;14.38;5.88;;;;;;;;;;5062388;28;20037;-58
2021/03/04 12:52:56;;;;;;;9.77;4.60;;;;;;;;;;5063007;28;20988;-59
2021/03/04 12:55:23;;;;;;;29.80;5.22;;;;;;;;;;5062987;28;20033;-58
2021/03/04 12:57:49;;;;;;;17.35;4.97;;;;;;;;;;5064495;28;20107;-58
2021/03/04 13:00:15;;;;;;;30.52;5.10;;;;;;;;;;5062835;28;20028;-58
2021/03/04 13:02:41;;;;;;;7.43;3.40;;;;;;;;;;5065894;28;20489;-59
2021/03/04 13:05:08;;;;;;;24.27;4.55;;;;;;;;;;5064661;28;20029;-59
2021/03/04 13:07:34;;;;;;;12.00;4.18;;;;;;;;;;5064187;28;20017;-58
2021/03/04 13:10:00;;;;;;;13.70;4.07;;;;;;;;;;5065072;28;20044;-59
2021/03/04 13:12:26;;;;;;;14.63;4.53;;;;;;;;;;5063017;28;20450;-59
2021/03/04 13:14:52;;;;;;;19.17;4.60;;;;;;;;;;5065562;28;20029;-58
2021/03/04 13:17:18;;;;;;;10.55;3.08;;;;;;;;;;5062335;28;20109;-59
2021/03/04 13:19:45;;;;;;;12.38;3.53;;;;;;;;;;5063356;28;20048;-59
2021/03/04 13:22:11;;;;;;;20.38;3.70;;;;;;;;;;5062806;28;20025;-59
2021/03/04 13:24:37;;;;;;;6.30;3.03;;;;;;;;;;5063216;28;20016;-58
2021/03/04 13:27:03;;;;;;;9.13;2.95;;;;;;;;;;5064458;28;20028;-59
2021/03/04 13:29:29;;;;;;;13.50;3.05;;;;;;;;;;5064034;28;20029;-59
2021/03/04 13:31:55;;;;;;;10.55;4.15;;;;;;;;;;5067869;28;20358;-59
2021/03/04 13:34:20;;;;;;;9.23;2.88;;;;;;;;;;5072653;28;20032;-58
2021/03/04 13:36:46;;;;;;;11.35;3.47;;;;;;;;;;5073959;28;20031;-59
2021/03/04 13:39:13;;;;;;;8.93;3.50;;;;;;;;;;5074931;28;20063;-59
2021/03/04 13:41:39;;;;;;;10.48;2.85;;;;;;;;;;5071934;28;20101;-59
2021/03/04 13:44:06;;;;;;;5.47;2.60;;;;;;;;;;5055215;28;20362;-58
2021/03/04 13:46:32;;;;;;;11.23;3.03;;;;;;;;;;5055042;28;20025;-58
2021/03/04 13:48:58;;;;;;;5.30;2.88;;;;;;;;;;5068548;28;20024;-58
2021/03/04 13:51:24;;;;;;;17.25;3.63;;;;;;;;;;5069964;28;20370;-60
2021/03/04 13:53:50;;;;;;;11.25;3.15;;;;;;;;;;5055032;28;20031;-60
2021/03/04 13:56:16;;;;;;;6.22;2.75;;;;;;;;;;5055276;28;20032;-59
2021/03/04 13:58:42;;;;;;;10.27;3.10;;;;;;;;;;5053442;28;20104;-59
2021/03/04 14:01:08;;;;;;;6.95;2.60;;;;;;;;;;5054511;28;20052;-60
2021/03/04 14:03:36;;;;;;;7.18;2.85;;;;;;;;;;5068180;28;20028;-59
2021/03/04 14:06:02;;;;;;;9.73;2.60;;;;;;;;;;5072798;28;20028;-59
2021/03/04 14:08:29;;;;;;;18.75;3.38;;;;;;;;;;5066352;28;20546;-59
2021/03/04 14:10:55;;;;;;;18.52;3.33;;;;;;;;;;5063771;28;20032;-59
2021/03/04 14:13:21;;;;;;;11.40;3.50;;;;;;;;;;5057591;28;20033;-59
2021/03/04 14:15:47;;;;;;;26.40;3.22;;;;;;;;;;5053006;28;20037;-59
2021/03/04 14:18:13;;;;;;;14.32;3.13;;;;;;;;;;5061990;28;20026;-59
2021/03/04 14:20:39;;;;;;;15.45;3.47;;;;;;;;;;5069712;28;20107;-59